Time;durP1;ratioP1;P1;durP2;ratioP2;P2;SDS_P1;SDS_P2;PMS_P1;PMS_P2;Temp;Humidity;BMP_temperature;BMP_pressure;BME280_temperature;BME280_humidity;BME280_pressure;Samples;Min_cycle;Max_cycle;Signal;HPM_P1;HPM_P2
2023/06/16 00:01:15;;;;;;;14.90;7.07;;;;;;;16.76;97.91;100853.72;5005875;28;20066;-61
2023/06/16 00:03:43;;;;;;;10.55;7.13;;;;;;;16.71;98.63;100857.56;5004231;28;20054;-60
2023/06/16 00:06:13;;;;;;;13.68;7.32;;;;;;;16.70;99.00;100852.34;5004361;28;20821;-60
2023/06/16 00:08:54;;;;;;;8.68;7.72;;;;;;;16.68;99.47;100851.63;5004586;28;20042;-62
2023/06/16 00:11:22;;;;;;;10.93;7.50;;;;;;;16.66;99.56;100856.22;4982429;28;20077;-63
2023/06/16 00:13:50;;;;;;;10.05;7.47;;;;;;;16.63;99.76;100851.16;5002123;28;20866;-59
2023/06/16 00:16:21;;;;;;;9.10;6.80;;;;;;;16.61;99.63;100845.94;4989424;28;20109;-61
2023/06/16 00:18:53;;;;;;;10.07;6.03;;;;;;;16.57;99.71;100841.00;5003236;28;20475;-58
2023/06/16 00:21:31;;;;;;;10.57;7.15;;;;;;;16.54;99.97;100844.78;4989242;28;20060;-62
2023/06/16 00:23:58;;;;;;;8.20;6.60;;;;;;;16.51;100.00;100842.34;5002479;28;20113;-58
2023/06/16 00:26:26;;;;;;;9.80;6.85;;;;;;;16.48;100.00;100847.94;5005583;28;20050;-58
2023/06/16 00:29:03;;;;;;;10.60;7.55;;;;;;;16.46;100.00;100837.41;5010308;28;20058;-60
2023/06/16 00:31:31;;;;;;;9.18;7.32;;;;;;;16.45;100.00;100835.72;5006713;28;20132;-60
2023/06/16 00:33:59;;;;;;;8.52;6.45;;;;;;;16.44;100.00;100835.88;4999137;28;20038;-61
2023/06/16 00:36:27;;;;;;;8.00;6.63;;;;;;;16.41;100.00;100833.44;5001971;28;20073;-62
2023/06/16 00:38:55;;;;;;;10.32;6.82;;;;;;;16.38;100.00;100825.72;4998047;28;20049;-60
2023/06/16 00:41:23;;;;;;;8.95;6.47;;;;;;;16.37;100.00;100837.31;5006483;28;20136;-60
2023/06/16 00:43:52;;;;;;;11.63;7.10;;;;;;;16.37;100.00;100829.34;5002993;28;20073;-60
2023/06/16 00:46:27;;;;;;;11.88;7.05;;;;;;;16.37;100.00;100824.03;5002307;28;20073;-59
2023/06/16 00:48:56;;;;;;;10.73;6.68;;;;;;;16.36;100.00;100831.16;5006149;28;20061;-60
2023/06/16 00:51:25;;;;;;;6.80;6.10;;;;;;;16.34;100.00;100824.25;4988957;28;20164;-61
2023/06/16 00:53:54;;;;;;;10.45;6.78;;;;;;;16.30;100.00;100818.38;4986913;28;20144;-62
2023/06/16 00:56:23;;;;;;;14.00;6.45;;;;;;;16.28;100.00;100825.59;5004040;28;20148;-61
2023/06/16 00:58:53;;;;;;;8.88;6.65;;;;;;;16.26;100.00;100816.91;5006427;28;20584;-61
2023/06/16 01:01:20;;;;;;;16.73;7.28;;;;;;;16.17;100.00;100822.97;5008326;28;20152;-61
2023/06/16 01:03:50;;;;;;;8.55;6.70;;;;;;;16.11;100.00;100824.28;5001030;28;20132;-59
2023/06/16 01:06:41;;;;;;;8.45;6.40;;;;;;;16.08;100.00;100824.53;5003245;28;20153;-62
2023/06/16 01:09:20;;;;;;;9.02;6.30;;;;;;;16.04;100.00;100814.28;4998311;28;20140;-60
2023/06/16 01:12:12;;;;;;;8.60;6.32;;;;;;;16.04;100.00;100822.25;4999413;28;20128;-60
2023/06/16 01:14:47;;;;;;;10.65;6.90;;;;;;;16.05;100.00;100808.00;5006083;28;20053;-61
2023/06/16 01:17:15;;;;;;;7.57;5.82;;;;;;;16.05;99.73;100808.00;5010801;28;20053;-61
2023/06/16 01:19:50;;;;;;;9.68;6.38;;;;;;;16.02;99.70;100808.22;4986027;28;20421;-60
2023/06/16 01:23:00;;;;;;;8.07;5.93;;;;;;;16.01;100.00;100799.41;4981418;28;20058;-60
2023/06/16 01:25:30;;;;;;;8.48;6.97;;;;;;;16.01;100.00;100810.03;4978546;28;20053;-64
2023/06/16 01:28:00;;;;;;;7.93;6.65;;;;;;;15.98;100.00;100804.13;4982451;28;20131;-60
2023/06/16 01:30:30;;;;;;;9.65;6.63;;;;;;;15.97;100.00;100805.94;5002378;28;20061;-60
2023/06/16 01:32:57;;;;;;;10.82;6.40;;;;;;;15.95;100.00;100802.56;4973643;28;20133;-61
2023/06/16 01:35:25;;;;;;;8.32;6.15;;;;;;;15.94;100.00;100812.34;5002672;28;20531;-62
2023/06/16 01:37:54;;;;;;;7.68;6.00;;;;;;;15.95;100.00;100813.19;4980068;28;20133;-62
2023/06/16 01:40:22;;;;;;;10.38;6.47;;;;;;;15.93;100.00;100799.16;4998428;28;20133;-62
2023/06/16 01:42:51;;;;;;;8.07;6.30;;;;;;;15.89;100.00;100808.34;5015538;28;20332;-63
2023/06/16 01:45:18;;;;;;;8.68;6.85;;;;;;;15.87;100.00;100804.97;5011713;28;20685;-61
2023/06/16 01:47:47;;;;;;;8.73;6.53;;;;;;;15.84;100.00;100797.25;4980218;28;20078;-61
2023/06/16 01:50:14;;;;;;;10.50;6.53;;;;;;;15.82;100.00;100797.38;5001219;28;20568;-59
2023/06/16 01:52:42;;;;;;;7.88;6.20;;;;;;;15.82;100.00;100797.38;4999900;28;20077;-62
2023/06/16 01:55:09;;;;;;;11.57;6.90;;;;;;;15.81;100.00;100794.84;4991385;28;20062;-61
2023/06/16 01:57:37;;;;;;;7.05;6.15;;;;;;;15.80;100.00;100793.97;5002989;28;20066;-60
2023/06/16 02:00:12;;;;;;;10.55;5.72;;;;;;;15.79;100.00;100789.63;5007420;28;20413;-63
2023/06/16 02:02:43;;;;;;;10.75;6.38;;;;;;;15.79;100.00;100784.31;4984195;28;20418;-61
2023/06/16 02:05:11;;;;;;;9.45;6.72;;;;;;;15.78;100.00;100793.25;5001864;28;20596;-61
2023/06/16 02:07:41;;;;;;;15.73;6.63;;;;;;;15.76;100.00;100789.03;5002890;28;20162;-61
2023/06/16 02:10:09;;;;;;;10.32;6.22;;;;;;;15.72;100.00;100788.44;4998627;28;20186;-60
2023/06/16 02:12:37;;;;;;;11.45;6.72;;;;;;;15.70;100.00;100790.34;4986335;28;20088;-60
2023/06/16 02:15:05;;;;;;;6.93;5.95;;;;;;;15.67;100.00;100785.31;4978906;28;20058;-59
2023/06/16 02:17:32;;;;;;;9.45;5.85;;;;;;;15.69;100.00;100780.72;4987462;28;20080;-63
2023/06/16 02:20:50;;;;;;;9.30;6.15;;;;;;;15.68;100.00;100784.34;5005643;28;20049;-61
2023/06/16 02:23:17;;;;;;;10.50;6.88;;;;;;;15.67;99.76;100778.19;5004126;28;20054;-59
2023/06/16 02:25:46;;;;;;;9.88;5.65;;;;;;;15.66;99.86;100784.44;5007224;28;20089;-59
2023/06/16 02:28:13;;;;;;;11.93;6.60;;;;;;;15.65;99.68;100773.94;5007860;28;20077;-62
2023/06/16 02:30:40;;;;;;;9.88;6.05;;;;;;;15.62;99.64;100777.63;4995370;28;20054;-62
2023/06/16 02:33:08;;;;;;;9.77;6.00;;;;;;;15.59;98.61;100775.25;5006057;28;20072;-60
2023/06/16 02:35:35;;;;;;;12.35;6.15;;;;;;;15.54;98.34;100774.75;5007413;28;20053;-61
2023/06/16 02:38:02;;;;;;;7.82;5.55;;;;;;;15.53;98.01;100773.03;5025244;28;20426;-61
2023/06/16 02:40:30;;;;;;;9.73;6.07;;;;;;;15.54;97.80;100779.22;4989902;28;20119;-59
2023/06/16 02:42:58;;;;;;;11.88;5.32;;;;;;;15.53;97.64;100769.53;4999649;28;20522;-61
2023/06/16 02:45:25;;;;;;;6.78;6.10;;;;;;;15.54;97.80;100777.41;5009732;28;20046;-60
2023/06/16 02:47:52;;;;;;;8.93;5.13;;;;;;;15.52;97.71;100773.16;5006972;28;20056;-62
2023/06/16 02:50:20;;;;;;;9.93;6.28;;;;;;;15.50;97.41;100773.31;5005898;28;20061;-59
2023/06/16 02:52:49;;;;;;;9.43;5.90;;;;;;;15.51;97.44;100771.50;5007244;28;20060;-60
2023/06/16 02:55:17;;;;;;;10.15;5.45;;;;;;;15.52;97.30;100770.50;5008312;28;20054;-62
2023/06/16 02:57:44;;;;;;;7.53;5.80;;;;;;;15.50;97.43;100770.66;5008113;28;20062;-61
2023/06/16 03:00:12;;;;;;;9.25;6.55;;;;;;;15.50;97.69;100772.47;5008042;28;20046;-61
2023/06/16 03:02:40;;;;;;;12.23;7.32;;;;;;;15.51;98.01;100774.13;5007731;28;20504;-63
2023/06/16 03:05:07;;;;;;;10.85;6.88;;;;;;;15.49;98.39;100768.09;5009523;28;20117;-63
2023/06/16 03:07:35;;;;;;;10.27;7.47;;;;;;;15.47;98.27;100770.03;4989487;28;20054;-60
2023/06/16 03:10:06;;;;;;;13.07;7.85;;;;;;;15.48;97.83;100772.56;5003607;28;20054;-62
2023/06/16 03:12:33;;;;;;;9.80;7.55;;;;;;;15.49;97.74;100774.28;5004911;28;20080;-61
2023/06/16 03:15:01;;;;;;;12.25;7.85;;;;;;;15.51;97.57;100774.13;5006816;28;20421;-60
2023/06/16 03:17:28;;;;;;;12.18;7.60;;;;;;;15.53;97.87;100762.44;4990047;28;20093;-61
2023/06/16 03:19:55;;;;;;;10.25;7.45;;;;;;;15.56;97.98;100762.19;5006120;28;20082;-60
2023/06/16 03:22:22;;;;;;;10.57;7.85;;;;;;;15.57;97.80;100755.91;5002133;28;20482;-60
2023/06/16 03:24:50;;;;;;;13.43;7.47;;;;;;;15.58;97.70;100757.63;5003936;28;20730;-60
2023/06/16 03:27:17;;;;;;;10.45;7.55;;;;;;;15.59;97.80;100754.00;5002147;28;20096;-60
2023/06/16 03:29:47;;;;;;;13.50;7.63;;;;;;;15.59;97.89;100755.81;5002204;28;20073;-60
2023/06/16 03:32:14;;;;;;;11.13;8.40;;;;;;;15.61;98.05;100759.19;5003436;28;20056;-58
2023/06/16 03:34:44;;;;;;;11.18;7.68;;;;;;;15.59;97.95;100761.97;5023332;28;20104;-61
2023/06/16 03:37:11;;;;;;;11.35;7.60;;;;;;;15.60;97.66;100763.66;5007643;28;20050;-59
2023/06/16 03:39:39;;;;;;;12.50;7.85;;;;;;;15.61;97.84;100767.16;5002753;28;20592;-63
2023/06/16 03:42:07;;;;;;;10.13;7.22;;;;;;;15.61;97.75;100762.69;5003012;28;20091;-62
2023/06/16 03:44:34;;;;;;;10.55;7.25;;;;;;;15.61;97.66;100765.34;5007360;28;20072;-61
2023/06/16 03:47:02;;;;;;;12.25;7.57;;;;;;;15.61;97.76;100765.34;5007847;28;20061;-60
2023/06/16 03:49:29;;;;;;;10.30;7.35;;;;;;;15.63;97.70;100773.19;5007559;28;20071;-61
2023/06/16 03:51:57;;;;;;;10.68;7.45;;;;;;;15.65;97.49;100766.81;5018114;28;20085;-60
2023/06/16 03:54:26;;;;;;;9.73;8.07;;;;;;;15.68;97.63;100771.06;5001886;28;20146;-60
2023/06/16 03:56:53;;;;;;;10.10;7.50;;;;;;;15.70;97.78;100774.44;5001589;28;20050;-60
2023/06/16 03:59:21;;;;;;;12.40;7.38;;;;;;;15.73;97.89;100774.19;5004612;28;20072;-58
2023/06/16 04:01:51;;;;;;;10.23;7.25;;;;;;;15.75;97.13;100774.06;5005781;28;20052;-59
2023/06/16 04:04:18;;;;;;;14.00;8.27;;;;;;;15.77;96.81;100766.84;5002146;28;20412;-62
2023/06/16 04:06:48;;;;;;;8.98;7.13;;;;;;;15.81;96.48;100776.25;5008582;28;20056;-59
2023/06/16 04:09:16;;;;;;;12.60;7.60;;;;;;;15.86;96.31;100774.94;5008946;28;20173;-58
2023/06/16 04:11:43;;;;;;;8.80;6.80;;;;;;;15.90;96.22;100773.72;4990661;28;20525;-59
2023/06/16 04:14:11;;;;;;;11.52;7.20;;;;;;;15.91;96.14;100778.06;5003750;28;20112;-59
2023/06/16 04:16:42;;;;;;;11.75;7.53;;;;;;;15.93;95.61;100780.59;5003102;28;20050;-59
2023/06/16 04:19:10;;;;;;;8.45;7.65;;;;;;;15.92;95.54;100774.44;5003513;28;22013;-60
2023/06/16 04:21:38;;;;;;;7.82;6.53;;;;;;;15.95;95.27;100765.41;5006045;28;20058;-60
2023/06/16 04:24:06;;;;;;;10.88;7.75;;;;;;;16.00;95.49;100767.69;5005095;28;20077;-59
2023/06/16 04:26:34;;;;;;;10.50;7.78;;;;;;;15.99;95.13;100772.16;4985823;28;20145;-61
2023/06/16 04:29:03;;;;;;;11.63;7.85;;;;;;;16.00;94.96;100767.69;5004710;28;20060;-58
2023/06/16 04:31:35;;;;;;;11.32;7.75;;;;;;;15.94;95.07;100777.00;4999067;28;20053;-59
2023/06/16 04:34:05;;;;;;;12.45;8.23;;;;;;;15.91;95.24;100778.06;5002208;28;20046;-63
2023/06/16 04:36:32;;;;;;;8.13;7.10;;;;;;;15.93;95.33;100772.63;5010433;28;20145;-58
2023/06/16 04:39:00;;;;;;;11.32;8.27;;;;;;;15.94;95.11;100777.00;5005402;28;20086;-60
2023/06/16 04:41:27;;;;;;;9.20;6.75;;;;;;;15.89;94.93;100773.81;5002168;28;20157;-59
2023/06/16 04:43:54;;;;;;;9.07;8.02;;;;;;;15.83;94.97;100769.00;4983081;28;20463;-60
2023/06/16 04:46:22;;;;;;;8.52;7.70;;;;;;;15.79;95.07;100773.69;4988386;28;20050;-58
2023/06/16 04:48:49;;;;;;;9.98;7.30;;;;;;;15.81;95.67;100774.44;4967547;28;20057;-60
2023/06/16 04:51:17;;;;;;;10.43;6.70;;;;;;;15.83;95.48;100769.84;5007555;28;20144;-61
2023/06/16 04:53:44;;;;;;;12.70;8.35;;;;;;;15.87;95.45;100766.00;5004208;28;20580;-59
2023/06/16 04:56:11;;;;;;;10.35;7.93;;;;;;;15.93;95.49;100764.66;5008911;28;20046;-59
2023/06/16 04:58:38;;;;;;;10.88;7.53;;;;;;;15.95;95.25;100757.44;5011195;28;20050;-62
2023/06/16 05:01:07;;;;;;;9.45;7.40;;;;;;;15.97;95.64;100760.78;5007493;28;20137;-62
2023/06/16 05:03:34;;;;;;;9.50;7.45;;;;;;;16.00;95.61;100765.03;4989699;28;20074;-64
2023/06/16 05:06:03;;;;;;;8.65;6.97;;;;;;;16.04;95.48;100759.34;5009537;28;20045;-56
2023/06/16 05:08:31;;;;;;;9.48;7.53;;;;;;;16.03;95.23;100756.78;5007407;28;20074;-58
2023/06/16 05:10:58;;;;;;;8.60;6.78;;;;;;;16.10;95.11;100752.69;4986867;28;20369;-63
2023/06/16 05:13:25;;;;;;;9.82;6.95;;;;;;;16.16;94.96;100753.03;5001751;28;20076;-63
2023/06/16 05:15:53;;;;;;;8.85;7.28;;;;;;;16.19;94.73;100751.97;5002769;28;20064;-63
2023/06/16 05:18:20;;;;;;;8.15;6.68;;;;;;;16.20;94.78;100753.63;4987285;28;20142;-63
2023/06/16 05:20:48;;;;;;;10.50;7.78;;;;;;;16.26;94.77;100755.81;5000759;28;20581;-65
2023/06/16 05:23:15;;;;;;;11.88;7.57;;;;;;;16.28;94.81;100755.69;4994129;28;20050;-62
2023/06/16 05:25:43;;;;;;;15.30;7.57;;;;;;;16.31;95.28;100760.75;5003058;28;20477;-61
2023/06/16 05:28:10;;;;;;;7.32;6.60;;;;;;;16.35;95.00;100754.25;4998873;28;20062;-65
2023/06/16 05:30:37;;;;;;;8.65;7.75;;;;;;;16.39;94.90;100758.31;5003767;28;20157;-65
2023/06/16 05:33:04;;;;;;;10.55;6.85;;;;;;;16.32;95.01;100754.47;5005061;28;20137;-63
2023/06/16 05:35:32;;;;;;;12.43;7.82;;;;;;;16.31;95.58;100750.13;4994732;28;20056;-62
2023/06/16 05:37:59;;;;;;;9.32;7.35;;;;;;;16.35;95.49;100756.91;5000514;28;20113;-65
2023/06/16 05:40:27;;;;;;;8.23;6.78;;;;;;;16.38;95.49;100764.59;4998791;28;20073;-64
2023/06/16 05:42:54;;;;;;;9.27;6.47;;;;;;;16.36;95.13;100759.41;5003580;28;20054;-64
2023/06/16 05:45:21;;;;;;;8.43;6.63;;;;;;;16.37;95.07;100755.78;5002247;28;20054;-63
2023/06/16 05:47:49;;;;;;;12.45;6.78;;;;;;;16.42;95.13;100758.91;5005205;28;20137;-62
2023/06/16 05:50:17;;;;;;;7.47;6.63;;;;;;;16.44;94.73;100756.16;5001173;28;20053;-64
2023/06/16 05:52:45;;;;;;;8.32;6.80;;;;;;;16.41;94.80;100759.88;4997582;28;20062;-65
2023/06/16 05:55:13;;;;;;;16.40;7.50;;;;;;;16.41;94.90;100759.88;5002955;28;20061;-64
2023/06/16 05:57:41;;;;;;;7.95;6.40;;;;;;;16.43;94.86;100760.59;5002865;28;20580;-65
2023/06/16 06:00:09;;;;;;;7.32;6.35;;;;;;;16.41;94.56;100757.22;5005001;28;20567;-63
2023/06/16 06:02:37;;;;;;;8.38;6.32;;;;;;;16.45;94.72;100755.16;5006168;28;20605;-62
2023/06/16 06:05:04;;;;;;;9.63;6.50;;;;;;;16.52;94.55;100759.00;4990302;28;20414;-63
2023/06/16 06:07:32;;;;;;;9.13;6.72;;;;;;;16.55;94.10;100752.59;5007569;28;20064;-63
2023/06/16 06:09:59;;;;;;;12.60;6.18;;;;;;;16.61;94.35;100760.91;5003365;23;20050;-50
2023/06/16 06:12:26;;;;;;;8.15;5.38;;;;;;;16.73;93.70;100761.75;4982913;28;20057;-49
2023/06/16 06:14:54;;;;;;;9.70;6.70;;;;;;;16.77;93.05;100767.66;4985865;28;20062;-51
2023/06/16 06:17:21;;;;;;;9.38;5.63;;;;;;;16.77;92.75;100762.34;4982824;28;20090;-50
2023/06/16 06:19:48;;;;;;;8.90;6.72;;;;;;;16.73;92.42;100771.53;4985961;28;20058;-48
2023/06/16 06:22:15;;;;;;;6.40;5.80;;;;;;;16.61;93.13;100766.22;4984021;28;20061;-51
2023/06/16 06:24:42;;;;;;;10.60;6.13;;;;;;;16.58;93.37;100771.81;4987234;28;20050;-54
2023/06/16 06:27:10;;;;;;;6.50;5.63;;;;;;;16.48;93.43;100767.34;4983288;28;20101;-51
2023/06/16 06:29:38;;;;;;;6.45;5.28;;;;;;;16.38;94.20;100780.53;4982839;28;20177;-48
2023/06/16 06:32:07;;;;;;;12.40;5.97;;;;;;;16.30;94.65;100781.19;4985654;28;20141;-51
2023/06/16 06:34:35;;;;;;;11.50;6.30;;;;;;;16.24;94.98;100773.69;4985678;28;20149;-50
2023/06/16 06:37:02;;;;;;;8.18;5.72;;;;;;;16.25;95.43;100774.53;4982686;28;20054;-50
2023/06/16 06:39:30;;;;;;;7.03;5.72;;;;;;;16.31;95.60;100777.53;4981898;28;20062;-52
2023/06/16 06:41:57;;;;;;;6.90;6.10;;;;;;;16.31;95.44;100780.19;4981007;28;20050;-51
2023/06/16 06:44:24;;;;;;;7.65;6.13;;;;;;;16.33;95.50;100774.75;4988220;28;20065;-51
2023/06/16 06:46:52;;;;;;;8.18;5.60;;;;;;;16.41;95.40;100785.63;4982979;28;20145;-54
2023/06/16 06:49:19;;;;;;;7.50;5.65;;;;;;;16.44;95.33;100782.72;4984663;28;20050;-50
2023/06/16 06:51:46;;;;;;;11.10;5.90;;;;;;;16.50;95.26;100781.38;4987924;28;20199;-49
2023/06/16 06:54:13;;;;;;;9.80;5.60;;;;;;;16.52;95.51;100792.72;4984459;28;20114;-51
2023/06/16 06:56:40;;;;;;;6.22;5.60;;;;;;;16.41;96.22;100790.94;4967860;28;20053;-50
2023/06/16 06:59:08;;;;;;;5.78;5.22;;;;;;;16.36;97.47;100790.47;4981661;28;20062;-48
2023/06/16 07:01:35;;;;;;;6.05;5.22;;;;;;;16.37;98.01;100797.44;4987093;28;20137;-53
2023/06/16 07:04:05;;;;;;;6.20;5.60;;;;;;;16.37;98.76;100800.94;4984691;28;20097;-54
2023/06/16 07:06:32;;;;;;;6.22;5.00;;;;;;;16.40;98.65;100799.88;4982754;28;20402;-51
2023/06/16 07:09:00;;;;;;;6.68;5.00;;;;;;;16.41;99.14;100794.44;4986134;28;20068;-53
2023/06/16 07:11:27;;;;;;;5.25;4.75;;;;;;;16.50;99.54;100797.31;4980701;28;20101;-52
2023/06/16 07:13:54;;;;;;;8.63;5.30;;;;;;;16.63;100.00;100800.66;4984701;28;20537;-47
2023/06/16 07:16:22;;;;;;;6.40;5.03;;;;;;;16.68;99.81;100801.97;4989459;28;20243;-49
2023/06/16 07:18:50;;;;;;;5.97;5.13;;;;;;;16.62;99.62;100806.97;4982454;28;20407;-52
2023/06/16 07:21:18;;;;;;;6.68;4.93;;;;;;;16.53;100.00;100800.56;4985329;28;21211;-49
2023/06/16 07:23:45;;;;;;;6.07;5.22;;;;;;;16.49;100.00;100807.09;4978950;28;20448;-51
2023/06/16 07:26:13;;;;;;;8.38;4.72;;;;;;;16.57;100.00;100807.34;4984649;28;20054;-48
2023/06/16 07:28:42;;;;;;;6.25;5.47;;;;;;;16.63;100.00;100806.81;4984663;28;20157;-50
2023/06/16 07:31:09;;;;;;;6.25;5.65;;;;;;;16.64;100.00;100800.53;4982109;28;20158;-49
2023/06/16 07:33:37;;;;;;;6.40;5.72;;;;;;;16.68;100.00;100807.28;4987121;28;20065;-52
2023/06/16 07:36:04;;;;;;;7.10;6.40;;;;;;;16.72;99.39;100805.25;4989905;28;20085;-53
2023/06/16 07:38:32;;;;;;;9.65;6.60;;;;;;;16.76;99.02;100803.19;4982827;28;20042;-53
2023/06/16 07:41:02;;;;;;;8.82;6.35;;;;;;;16.83;98.67;100804.38;4983701;28;20066;-49
2023/06/16 07:43:29;;;;;;;8.23;6.68;;;;;;;16.88;99.19;100796.84;4982560;28;20062;-48
2023/06/16 07:45:56;;;;;;;7.45;6.65;;;;;;;17.04;98.44;100801.75;4982848;28;20138;-49
2023/06/16 07:48:23;;;;;;;10.85;6.53;;;;;;;17.22;98.52;100805.53;4974945;28;20080;-48
2023/06/16 07:50:51;;;;;;;11.48;7.53;;;;;;;17.38;97.76;100799.75;4982291;28;20058;-48
2023/06/16 07:53:18;;;;;;;8.07;7.13;;;;;;;17.60;97.00;100799.59;4984213;28;20403;-51
2023/06/16 07:55:45;;;;;;;7.93;7.13;;;;;;;17.96;96.41;100802.78;4986383;28;20060;-48
2023/06/16 07:58:13;;;;;;;11.00;7.55;;;;;;;18.31;93.07;100801.50;4981002;28;20057;-49
2023/06/16 08:00:40;;;;;;;7.28;6.18;;;;;;;18.68;92.07;100797.22;4981998;28;20046;-52
2023/06/16 08:03:07;;;;;;;7.57;6.70;;;;;;;18.98;90.75;100803.47;4983395;28;20233;-54
2023/06/16 08:05:35;;;;;;;8.00;6.47;;;;;;;19.05;89.08;100804.59;4981019;28;20058;-50
2023/06/16 08:08:02;;;;;;;8.48;7.10;;;;;;;19.02;88.11;100799.53;4978393;28;20042;-52
2023/06/16 08:10:30;;;;;;;9.10;7.18;;;;;;;19.06;88.35;100800.09;4982165;28;20297;-49
2023/06/16 08:12:57;;;;;;;10.70;6.28;;;;;;;19.14;87.21;100802.91;4982817;28;20101;-50
2023/06/16 08:15:24;;;;;;;7.70;6.25;;;;;;;19.25;85.16;100797.41;4986845;28;20221;-53
2023/06/16 08:17:51;;;;;;;8.10;6.55;;;;;;;19.52;84.37;100802.00;4983899;28;20491;-52
2023/06/16 08:20:20;;;;;;;7.57;6.38;;;;;;;19.88;81.58;100788.84;4986216;28;20054;-53
2023/06/16 08:22:48;;;;;;;10.15;5.70;;;;;;;20.38;80.81;100791.13;4989116;28;20050;-49
2023/06/16 08:25:15;;;;;;;7.78;5.97;;;;;;;20.64;76.23;100791.28;4986801;28;20145;-51
2023/06/16 08:27:42;;;;;;;9.65;6.35;;;;;;;20.84;73.99;100784.78;4982488;28;20129;-51
2023/06/16 08:30:10;;;;;;;7.65;5.72;;;;;;;21.13;73.66;100792.59;4983507;28;20149;-53
2023/06/16 08:32:37;;;;;;;6.65;6.00;;;;;;;21.29;72.17;100778.47;4978902;28;20053;-53
2023/06/16 08:35:10;;;;;;;8.10;5.55;;;;;;;21.23;70.51;100779.94;4980546;28;20745;-52
2023/06/16 08:37:37;;;;;;;8.25;5.45;;;;;;;20.62;71.53;100786.06;4979982;28;20149;-54
2023/06/16 08:40:10;;;;;;;8.00;5.30;;;;;;;20.01;74.22;100786.69;4982747;28;20054;-50
2023/06/16 08:42:38;;;;;;;9.73;4.72;;;;;;;19.52;78.34;100795.81;4981139;28;20145;-48
2023/06/16 08:45:06;;;;;;;7.85;4.07;;;;;;;19.15;79.66;100800.09;4981616;28;20064;-55
2023/06/16 08:47:34;;;;;;;11.85;4.80;;;;;;;18.88;83.73;100791.94;4985493;28;20145;-48
2023/06/16 08:50:02;;;;;;;7.72;4.57;;;;;;;18.49;84.30;100794.53;4982414;28;20054;-50
2023/06/16 08:52:30;;;;;;;9.82;4.05;;;;;;;18.17;88.82;100787.56;4980481;28;20054;-49
2023/06/16 08:55:13;;;;;;;8.73;3.97;;;;;;;17.93;89.79;100785.25;4966100;28;20222;-50
2023/06/16 08:57:52;;;;;;;7.65;4.43;;;;;;;17.85;90.95;100782.41;4976307;28;20084;-48
2023/06/16 09:00:19;;;;;;;7.13;4.15;;;;;;;17.84;91.15;100780.72;4962175;28;20145;-50
2023/06/16 09:02:55;;;;;;;7.45;3.92;;;;;;;17.80;92.61;100789.13;4974169;28;20077;-52
2023/06/16 09:05:26;;;;;;;5.10;4.00;;;;;;;17.74;93.32;100794.94;4977818;28;20153;-50
2023/06/16 09:07:53;;;;;;;6.35;4.32;;;;;;;17.79;94.56;100788.28;4980365;28;20058;-51
2023/06/16 09:10:21;;;;;;;7.22;3.75;;;;;;;17.87;93.85;100795.56;4980707;28;20060;-51
2023/06/16 09:12:52;;;;;;;5.45;3.67;;;;;;;17.93;93.23;100809.22;4979978;28;20716;-49
2023/06/16 09:15:21;;;;;;;6.30;3.55;;;;;;;17.95;92.61;100809.09;4979071;28;20050;-48
2023/06/16 09:17:49;;;;;;;3.25;2.75;;;;;;;17.96;92.80;100800.09;4983930;28;20058;-47
2023/06/16 09:20:18;;;;;;;5.10;3.33;;;;;;;18.08;93.47;100798.19;4982528;28;20077;-54
2023/06/16 09:22:51;;;;;;;5.20;3.38;;;;;;;18.07;93.01;100801.84;4979738;28;20130;-54
2023/06/16 09:25:18;;;;;;;5.35;3.00;;;;;;;18.03;93.05;100811.94;4963816;28;20157;-53
2023/06/16 09:27:49;;;;;;;3.75;3.35;;;;;;;18.03;92.47;100793.28;4976251;28;20054;-48
2023/06/16 09:30:20;;;;;;;4.15;3.65;;;;;;;18.19;92.52;100798.09;4981807;28;20060;-52
2023/06/16 09:32:49;;;;;;;4.93;3.63;;;;;;;18.42;91.86;100796.06;4981468;28;20816;-51
2023/06/16 09:35:24;;;;;;;4.72;3.47;;;;;;;18.75;90.88;100805.56;4985870;28;20060;-47
2023/06/16 09:37:56;;;;;;;4.20;3.47;;;;;;;19.08;87.95;100801.63;4984907;28;20050;-50
2023/06/16 09:40:31;;;;;;;4.68;3.30;;;;;;;19.45;85.78;100808.88;4986076;28;20089;-50
2023/06/16 09:43:01;;;;;;;6.90;3.63;;;;;;;19.86;83.83;100809.53;4982493;28;20058;-49
2023/06/16 09:45:32;;;;;;;8.18;3.70;;;;;;;20.16;83.18;100801.25;4982025;28;20054;-54
2023/06/16 09:48:04;;;;;;;6.25;3.42;;;;;;;20.35;82.09;100797.63;4984090;28;20511;-51
2023/06/16 09:50:32;;;;;;;4.15;3.45;;;;;;;20.36;79.33;100810.00;4983900;28;20054;-53
2023/06/16 09:53:03;;;;;;;4.82;3.58;;;;;;;20.60;76.99;100813.97;4982977;28;20146;-49
2023/06/16 09:55:32;;;;;;;5.40;3.10;;;;;;;20.70;73.24;100814.75;4981237;28;20149;-48
2023/06/16 09:58:00;;;;;;;5.95;3.80;;;;;;;20.53;74.91;100810.22;4979020;28;20141;-48
2023/06/16 10:00:27;;;;;;;4.25;3.28;;;;;;;20.73;74.19;100814.47;4984265;28;20084;-49
2023/06/16 10:02:56;;;;;;;4.43;3.22;;;;;;;20.88;73.67;100810.25;4980283;28;20129;-53
2023/06/16 10:05:25;;;;;;;4.38;3.38;;;;;;;20.90;71.68;100810.13;4963497;28;20133;-51
2023/06/16 10:07:55;;;;;;;5.20;3.53;;;;;;;20.79;71.74;100813.00;4977368;28;20089;-51
2023/06/16 10:10:25;;;;;;;4.00;3.03;;;;;;;20.97;70.54;100813.84;4976101;28;20499;-52
2023/06/16 10:12:54;;;;;;;6.03;3.03;;;;;;;21.07;70.59;100814.59;4979981;28;20141;-48
2023/06/16 10:15:24;;;;;;;3.97;3.58;;;;;;;21.05;68.94;100813.09;4979549;28;20121;-50
2023/06/16 10:17:56;;;;;;;5.43;3.60;;;;;;;21.03;68.18;100812.38;4978590;28;20057;-53
2023/06/16 10:20:25;;;;;;;6.88;3.85;;;;;;;20.91;68.49;100812.63;4978208;28;20138;-50
2023/06/16 10:22:53;;;;;;;7.72;4.10;;;;;;;20.90;69.11;100807.44;4978994;28;20067;-54
2023/06/16 10:25:21;;;;;;;6.25;4.03;;;;;;;20.80;69.79;100804.81;4965120;28;20060;-49
2023/06/16 10:27:50;;;;;;;5.47;3.25;;;;;;;20.56;69.72;100813.44;4976720;28;20047;-52
2023/06/16 10:30:19;;;;;;;4.45;3.67;;;;;;;20.31;70.75;100814.97;4967460;28;20074;-50
2023/06/16 10:32:48;;;;;;;7.88;3.88;;;;;;;20.17;71.42;100808.28;4981062;28;20050;-52
2023/06/16 10:35:20;;;;;;;10.30;5.00;;;;;;;19.92;70.77;100798.25;4981474;28;20064;-53
2023/06/16 10:37:54;;;;;;;9.38;4.18;;;;;;;19.79;71.07;100805.75;4982433;28;20054;-52
2023/06/16 10:40:23;;;;;;;6.50;4.28;;;;;;;19.85;70.17;100814.03;4980367;28;20135;-49
2023/06/16 10:42:56;;;;;;;4.70;4.00;;;;;;;19.95;70.23;100806.84;4979319;28;20052;-53
2023/06/16 10:45:28;;;;;;;13.98;5.35;;;;;;;19.99;70.81;100804.69;4961300;28;20050;-49
2023/06/16 10:47:57;;;;;;;5.93;4.53;;;;;;;19.95;70.23;100801.50;4985819;28;20121;-53
2023/06/16 10:50:35;;;;;;;7.07;4.80;;;;;;;19.85;70.58;100807.84;4976911;28;20059;-54
2023/06/16 10:53:08;;;;;;;6.80;4.13;;;;;;;19.65;70.03;100810.56;4978514;28;20138;-53
2023/06/16 10:55:38;;;;;;;9.18;4.57;;;;;;;19.51;70.60;100800.31;4976282;28;20061;-54
2023/06/16 10:58:28;;;;;;;6.78;4.50;;;;;;;19.63;70.57;100801.00;4981134;28;20053;-53
2023/06/16 11:01:05;;;;;;;7.15;4.32;;;;;;;19.96;69.74;100800.50;4969614;28;20121;-55
2023/06/16 11:03:37;;;;;;;8.57;4.95;;;;;;;20.53;68.01;100796.84;4981808;28;20117;-52
2023/06/16 11:06:05;;;;;;;7.35;4.28;;;;;;;20.93;66.77;100793.75;4980104;28;20085;-55
2023/06/16 11:08:49;;;;;;;6.50;3.97;;;;;;;21.28;64.75;100792.88;4982715;28;20097;-51
2023/06/16 11:11:17;;;;;;;4.82;3.75;;;;;;;21.31;64.40;100799.75;4982202;28;20058;-49
2023/06/16 11:13:44;;;;;;;8.77;3.80;;;;;;;21.36;63.98;100798.31;4976737;28;21080;-49
2023/06/16 11:16:11;;;;;;;6.80;4.03;;;;;;;21.41;62.61;100806.72;4979749;28;20054;-55
2023/06/16 11:18:39;;;;;;;5.50;4.05;;;;;;;21.34;63.18;100804.81;4980747;28;20035;-53
2023/06/16 11:21:07;;;;;;;9.82;3.70;;;;;;;21.50;62.15;100804.94;4977998;28;20525;-51
2023/06/16 11:23:43;;;;;;;7.13;4.20;;;;;;;21.44;61.70;100803.75;4967325;28;20077;-48
2023/06/16 11:26:15;;;;;;;7.70;4.25;;;;;;;21.65;61.57;100803.38;4983806;28;20050;-50
2023/06/16 11:28:42;;;;;;;8.02;4.90;;;;;;;21.71;60.95;100800.06;4962776;28;20043;-53
2023/06/16 11:31:11;;;;;;;5.25;3.80;;;;;;;21.99;60.43;100803.41;4983482;28;20069;-54